Time;durP1;ratioP1;P1;durP2;ratioP2;P2;SDS_P1;SDS_P2;PMS_P1;PMS_P2;Temp;Humidity;BMP_temperature;BMP_pressure;BME280_temperature;BME280_humidity;BME280_pressure;Samples;Min_cycle;Max_cycle;Signal;HPM_P1;HPM_P2
2023/10/20 00:01:32;;;;;;;49.90;32.80;;;10.00;99.90;;;;;;5050754;28;20036;-58
2023/10/20 00:03:58;;;;;;;45.10;19.27;;;9.90;99.90;;;;;;5032237;28;20044;-57
2023/10/20 00:06:24;;;;;;;49.40;20.50;;;9.60;99.90;;;;;;5050884;28;20036;-58
2023/10/20 00:08:50;;;;;;;57.00;34.08;;;9.80;99.90;;;;;;5050732;28;20472;-59
2023/10/20 00:11:16;;;;;;;48.25;20.80;;;9.60;99.90;;;;;;5050756;28;20491;-58
2023/10/20 00:13:42;;;;;;;52.85;20.40;;;9.80;99.90;;;;;;5032870;28;20025;-57
2023/10/20 00:16:07;;;;;;;52.58;19.95;;;9.90;99.90;;;;;;5050395;28;20045;-56
2023/10/20 00:18:33;;;;;;;46.20;20.58;;;9.90;99.90;;;;;;5050202;28;20043;-57
2023/10/20 00:20:59;;;;;;;51.65;19.70;;;9.80;99.90;;;;;;5050114;28;20443;-56
2023/10/20 00:23:24;;;;;;;58.47;34.70;;;9.80;99.90;;;;;;5049453;28;20124;-58
2023/10/20 00:25:50;;;;;;;50.97;20.15;;;9.80;99.90;;;;;;5032764;28;20040;-58
2023/10/20 00:28:17;;;;;;;52.40;21.48;;;9.70;99.90;;;;;;5046719;28;20037;-57
2023/10/20 00:30:42;;;;;;;52.40;20.98;;;9.80;99.90;;;;;;5016009;28;20045;-57
2023/10/20 00:33:08;;;;;;;60.45;36.53;;;9.50;99.90;;;;;;5050253;28;20037;-60
2023/10/20 00:35:34;;;;;;;59.53;21.33;;;9.50;99.90;;;;;;5050695;28;20052;-58
2023/10/20 00:38:01;;;;;;;50.95;20.50;;;9.80;99.90;;;;;;5050508;28;20029;-58
2023/10/20 00:40:27;;;;;;;64.20;36.25;;;9.50;99.90;;;;;;5049856;28;20053;-58
2023/10/20 00:42:53;;;;;;;60.83;37.15;;;9.50;99.90;;;;;;5050080;28;20052;-59
2023/10/20 00:45:19;;;;;;;54.75;20.73;;;9.50;99.90;;;;;;5050211;28;20033;-58
2023/10/20 00:47:45;;;;;;;46.17;18.38;;;9.80;99.90;;;;;;5050420;28;20037;-58
2023/10/20 00:50:13;;;;;;;62.95;21.58;;;9.80;99.90;;;;;;5050096;28;20029;-57
2023/10/20 00:52:45;;;;;;;47.35;19.45;;;9.70;99.90;;;;;;5050387;28;20051;-57
2023/10/20 00:55:13;;;;;;;55.47;21.80;;;9.50;99.90;;;;;;5015976;28;20049;-59
2023/10/20 00:57:40;;;;;;;59.83;21.85;;;9.70;99.90;;;;;;5050062;28;20492;-58
2023/10/20 01:00:09;;;;;;;55.65;23.05;;;9.70;99.90;;;;;;5049822;28;20087;-58
2023/10/20 01:02:36;;;;;;;53.53;20.73;;;9.50;99.90;;;;;;5032712;28;20392;-58
2023/10/20 01:05:06;;;;;;;60.13;21.48;;;9.40;99.90;;;;;;5050046;28;20047;-56
2023/10/20 01:07:32;;;;;;;73.00;37.67;;;9.30;99.90;;;;;;5050077;28;20127;-57
2023/10/20 01:10:05;;;;;;;57.03;20.48;;;9.30;99.90;;;;;;5032590;28;20499;-58
2023/10/20 01:12:35;;;;;;;62.33;22.92;;;9.60;99.90;;;;;;5030879;28;20480;-59
2023/10/20 01:15:02;;;;;;;54.83;20.13;;;9.30;99.90;;;;;;5049789;28;20126;-58
2023/10/20 01:17:29;;;;;;;56.33;20.35;;;9.30;99.90;;;;;;5053664;28;20557;-59
2023/10/20 01:19:55;;;;;;;48.92;19.48;;;9.50;99.90;;;;;;5053270;28;20094;-58
2023/10/20 01:22:22;;;;;;;57.53;21.13;;;9.60;99.90;;;;;;5053061;28;20029;-58
2023/10/20 01:24:47;;;;;;;66.45;21.42;;;9.60;99.90;;;;;;5053396;28;20044;-58
2023/10/20 01:27:13;;;;;;;52.90;20.85;;;9.30;99.90;;;;;;5053484;28;20033;-58
2023/10/20 01:29:39;;;;;;;53.85;20.98;;;9.30;99.90;;;;;;5052958;28;20039;-56
2023/10/20 01:32:05;;;;;;;60.42;20.45;;;9.20;99.90;;;;;;5053302;28;20041;-59
2023/10/20 01:34:31;;;;;;;56.30;20.08;;;9.30;99.90;;;;;;5053356;28;20102;-58
2023/10/20 01:36:57;;;;;;;53.38;20.27;;;9.20;99.90;;;;;;5053624;28;20040;-59
2023/10/20 01:39:22;;;;;;;50.88;19.08;;;9.50;99.90;;;;;;5053056;28;20045;-59
2023/10/20 01:41:48;;;;;;;58.80;21.13;;;9.40;99.90;;;;;;5052070;28;20127;-58
2023/10/20 01:44:14;;;;;;;56.97;19.90;;;9.40;99.90;;;;;;5050758;28;20037;-59
2023/10/20 01:46:48;;;;;;;53.13;19.83;;;9.30;99.90;;;;;;5052743;28;20064;-57
2023/10/20 01:49:14;;;;;;;59.50;20.52;;;9.20;99.90;;;;;;5052453;28;20084;-56
2023/10/20 01:51:39;;;;;;;60.92;21.02;;;9.50;99.90;;;;;;5034264;28;20077;-57
2023/10/20 01:54:06;;;;;;;48.35;18.65;;;9.40;99.90;;;;;;5052747;28;20051;-58
2023/10/20 01:56:32;;;;;;;62.70;34.05;;;9.50;99.90;;;;;;5052911;28;20107;-58
2023/10/20 01:58:58;;;;;;;56.20;20.65;;;9.50;99.90;;;;;;5049753;28;20443;-57
2023/10/20 02:01:23;;;;;;;52.47;19.15;;;9.20;99.90;;;;;;5052888;28;20060;-56
2023/10/20 02:03:49;;;;;;;53.97;20.38;;;9.20;99.90;;;;;;5052914;28;20195;-56
2023/10/20 02:06:18;;;;;;;52.65;18.63;;;9.10;99.90;;;;;;5052829;28;20033;-57
2023/10/20 02:08:44;;;;;;;54.42;20.05;;;9.20;99.90;;;;;;5034074;28;20148;-58
2023/10/20 02:11:09;;;;;;;52.60;20.17;;;9.50;99.90;;;;;;5052240;28;20119;-58
2023/10/20 02:13:38;;;;;;;46.50;18.38;;;9.50;99.90;;;;;;5052542;28;20041;-58
2023/10/20 02:16:06;;;;;;;51.25;20.80;;;9.40;99.90;;;;;;5052721;28;20072;-57
2023/10/20 02:18:32;;;;;;;64.43;34.10;;;9.50;99.90;;;;;;5052656;28;20477;-57
2023/10/20 02:20:58;;;;;;;49.03;17.55;;;9.50;99.90;;;;;;5052451;28;20048;-56
2023/10/20 02:23:25;;;;;;;61.53;33.63;;;9.10;99.90;;;;;;5052225;28;20033;-58
2023/10/20 02:26:02;;;;;;;68.30;35.45;;;9.20;99.90;;;;;;5033757;28;20037;-58
2023/10/20 02:28:28;;;;;;;48.55;17.13;;;9.10;99.90;;;;;;5052210;28;20072;-58
2023/10/20 02:30:57;;;;;;;57.20;19.15;;;9.10;99.90;;;;;;5051945;28;20044;-58
2023/10/20 02:33:23;;;;;;;53.38;19.63;;;9.30;99.90;;;;;;5052197;28;20036;-59
2023/10/20 02:35:49;;;;;;;70.60;36.35;;;9.40;99.90;;;;;;5051796;28;20059;-58
2023/10/20 02:38:14;;;;;;;59.28;19.52;;;9.00;99.90;;;;;;5052051;28;20063;-57
2023/10/20 02:40:49;;;;;;;57.25;18.40;;;9.30;99.90;;;;;;5051760;28;20045;-56
2023/10/20 02:43:15;;;;;;;64.63;21.00;;;9.00;99.90;;;;;;5049589;28;20037;-57
2023/10/20 02:45:52;;;;;;;61.25;19.75;;;9.00;99.90;;;;;;5051998;28;20373;-57
2023/10/20 02:48:21;;;;;;;51.97;19.75;;;9.10;99.90;;;;;;5050740;28;20040;-57
2023/10/20 02:50:47;;;;;;;57.50;21.42;;;9.40;99.90;;;;;;5051929;28;20400;-58
2023/10/20 02:53:16;;;;;;;57.55;20.88;;;9.30;99.90;;;;;;5051952;28;20029;-57
2023/10/20 02:55:42;;;;;;;57.45;20.30;;;9.40;99.90;;;;;;5051859;28;20392;-58
2023/10/20 02:58:11;;;;;;;46.63;18.40;;;9.20;99.90;;;;;;5051341;28;20090;-58
2023/10/20 03:00:45;;;;;;;65.78;35.15;;;9.40;99.90;;;;;;5051035;28;20037;-57
2023/10/20 03:03:11;;;;;;;62.80;34.22;;;9.00;99.90;;;;;;5051887;28;20044;-58
2023/10/20 03:05:45;;;;;;;47.35;17.80;;;9.40;99.90;;;;;;5051963;28;20469;-56
2023/10/20 03:08:10;;;;;;;84.43;38.67;;;9.00;99.90;;;;;;5051212;28;20041;-57
2023/10/20 03:10:37;;;;;;;52.08;17.80;;;9.20;99.90;;;;;;5051609;28;20091;-57
2023/10/20 03:13:06;;;;;;;52.83;19.48;;;9.00;99.90;;;;;;5051216;28;20052;-58
2023/10/20 03:15:32;;;;;;;50.05;19.23;;;9.40;99.90;;;;;;5033374;28;20033;-58
2023/10/20 03:18:02;;;;;;;55.85;19.45;;;9.30;99.90;;;;;;5051062;28;20116;-59
2023/10/20 03:20:28;;;;;;;65.10;35.38;;;9.30;99.90;;;;;;5051069;28;20033;-58
2023/10/20 03:22:57;;;;;;;69.93;37.03;;;9.10;99.90;;;;;;5051311;28;20278;-56
2023/10/20 03:25:23;;;;;;;63.67;18.65;;;9.00;99.90;;;;;;5051404;28;20473;-57
2023/10/20 03:27:48;;;;;;;54.05;20.00;;;8.90;99.90;;;;;;5049141;28;20542;-58
2023/10/20 03:30:17;;;;;;;57.47;19.77;;;8.80;99.90;;;;;;5050342;28;20049;-56
2023/10/20 03:32:47;;;;;;;54.20;19.48;;;8.90;99.90;;;;;;5051170;28;20473;-58
2023/10/20 03:35:12;;;;;;;53.92;19.85;;;8.80;99.90;;;;;;5051119;28;20045;-57
2023/10/20 03:37:38;;;;;;;66.93;22.20;;;8.80;99.90;;;;;;5030429;28;20045;-57
2023/10/20 03:40:13;;;;;;;55.70;19.35;;;9.20;99.90;;;;;;5032997;28;20068;-58
2023/10/20 03:42:43;;;;;;;56.90;20.33;;;9.20;99.90;;;;;;5049221;28;20082;-57
2023/10/20 03:45:10;;;;;;;70.43;35.95;;;8.80;99.90;;;;;;5033172;28;20106;-58
2023/10/20 03:47:39;;;;;;;64.70;20.38;;;9.20;99.90;;;;;;5050865;28;20472;-58
2023/10/20 03:50:17;;;;;;;53.65;18.90;;;8.80;99.90;;;;;;5050791;28;20045;-58
2023/10/20 03:52:45;;;;;;;53.75;19.02;;;9.20;99.90;;;;;;5050701;28;20089;-56
2023/10/20 03:55:14;;;;;;;58.50;21.02;;;8.80;99.90;;;;;;5050724;28;20049;-57
2023/10/20 03:57:44;;;;;;;54.72;20.42;;;9.10;99.90;;;;;;5050875;28;20087;-59
2023/10/20 04:00:29;;;;;;;65.05;36.60;;;9.10;99.90;;;;;;5049891;28;20037;-58
2023/10/20 04:02:56;;;;;;;48.28;19.08;;;8.90;99.90;;;;;;5050564;28;20074;-57
2023/10/20 04:05:23;;;;;;;54.42;20.05;;;8.90;99.90;;;;;;5032794;28;20075;-57
2023/10/20 04:07:50;;;;;;;50.38;19.83;;;9.30;99.90;;;;;;5050614;28;20376;-58
2023/10/20 04:10:18;;;;;;;57.72;21.95;;;8.80;99.90;;;;;;5049447;28;20083;-57
2023/10/20 04:12:44;;;;;;;59.58;20.05;;;8.80;99.90;;;;;;5048881;28;20405;-56
2023/10/20 04:15:14;;;;;;;58.03;21.50;;;9.20;99.90;;;;;;5032924;28;20041;-58
2023/10/20 04:17:51;;;;;;;56.88;20.23;;;9.20;99.90;;;;;;5049946;28;20045;-57
2023/10/20 04:20:20;;;;;;;53.75;19.52;;;8.80;99.90;;;;;;5050325;28;20517;-57
2023/10/20 04:22:50;;;;;;;57.33;20.42;;;8.70;99.90;;;;;;5047454;28;20041;-56
2023/10/20 04:25:21;;;;;;;48.38;19.10;;;8.90;99.90;;;;;;5049785;28;20388;-56
2023/10/20 04:57:50;;;;;;;50.85;17.08;;;8.80;99.90;;;;;;5054329;28;20063;-57
2023/10/20 05:07:52;;;;;;;60.42;20.88;;;8.60;99.90;;;;;;5054068;28;20611;-57
2023/10/20 05:10:19;;;;;;;46.70;17.00;;;8.70;99.90;;;;;;5053955;28;20044;-54
2023/10/20 05:12:48;;;;;;;56.35;21.58;;;8.70;99.90;;;;;;5035703;28;20076;-56
2023/10/20 05:15:14;;;;;;;59.53;20.05;;;8.80;99.90;;;;;;5053858;28;20635;-55
2023/10/20 05:17:41;;;;;;;48.08;18.80;;;9.00;99.90;;;;;;5053369;28;20037;-57
2023/10/20 05:20:12;;;;;;;52.17;19.15;;;8.70;99.90;;;;;;5050149;28;20096;-55
2023/10/20 05:22:40;;;;;;;53.38;19.05;;;8.70;99.90;;;;;;5051064;28;20393;-56
2023/10/20 05:25:06;;;;;;;57.67;32.90;;;8.80;99.90;;;;;;5053510;28;20469;-56
2023/10/20 05:27:32;;;;;;;46.47;18.02;;;9.00;99.90;;;;;;5053608;28;20110;-56
2023/10/20 05:29:58;;;;;;;51.00;18.95;;;8.60;99.90;;;;;;5052998;28;20037;-55
2023/10/20 05:32:23;;;;;;;50.45;19.70;;;8.80;99.90;;;;;;5053229;28;20079;-56
2023/10/20 05:34:54;;;;;;;46.95;19.10;;;9.00;99.90;;;;;;5053105;28;20109;-56
2023/10/20 05:37:23;;;;;;;45.63;18.42;;;8.70;99.90;;;;;;5053545;28;20400;-56
2023/10/20 05:39:49;;;;;;;56.97;18.13;;;8.80;99.90;;;;;;5052817;28;20107;-56
2023/10/20 05:42:16;;;;;;;52.22;19.13;;;8.60;99.90;;;;;;5053320;28;20472;-56
2023/10/20 05:47:27;;;;;;;46.33;19.20;;;8.90;99.90;;;;;;5052763;28;20044;-57
2023/10/20 05:49:53;;;;;;;53.50;19.45;;;8.60;99.90;;;;;;5053117;28;20162;-57
2023/10/20 05:52:19;;;;;;;44.20;17.25;;;8.80;99.90;;;;;;5053004;28;20526;-56
2023/10/20 05:54:45;;;;;;;51.58;17.45;;;8.60;99.90;;;;;;5052467;28;20041;-55
2023/10/20 05:57:11;;;;;;;44.75;18.38;;;9.00;99.90;;;;;;5034848;28;20041;-55
2023/10/20 05:59:38;;;;;;;48.72;18.35;;;8.90;99.90;;;;;;5051755;28;20179;-56
2023/10/20 06:02:04;;;;;;;50.65;31.17;;;8.80;99.90;;;;;;5051918;28;20041;-55
2023/10/20 06:04:30;;;;;;;45.67;18.63;;;8.90;99.90;;;;;;5033083;28;20569;-57
2023/10/20 06:06:56;;;;;;;41.40;17.17;;;8.50;99.90;;;;;;5051425;28;20033;-56
2023/10/20 06:09:25;;;;;;;45.13;18.00;;;9.00;99.90;;;;;;5052693;28;20040;-55
2023/10/20 06:11:53;;;;;;;44.88;17.95;;;8.70;99.90;;;;;;5052420;28;20041;-56
2023/10/20 06:14:20;;;;;;;40.53;17.00;;;8.80;99.90;;;;;;5050488;28;20047;-57
2023/10/20 06:16:46;;;;;;;44.13;17.50;;;8.70;99.90;;;;;;5050521;28;20048;-56
2023/10/20 06:19:11;;;;;;;48.05;29.70;;;8.70;99.90;;;;;;5051934;28;20037;-57
2023/10/20 06:21:38;;;;;;;39.47;14.68;;;8.50;99.90;;;;;;5033143;28;20059;-53
2023/10/20 06:24:04;;;;;;;36.97;14.55;;;8.50;99.90;;;;;;5051721;28;20052;-57
2023/10/20 06:26:30;;;;;;;37.35;16.70;;;8.90;99.90;;;;;;5052337;28;20048;-56
2023/10/20 06:28:56;;;;;;;42.72;16.30;;;8.60;99.90;;;;;;5051876;28;20032;-57
2023/10/20 06:31:41;;;;;;;38.13;16.50;;;8.90;99.90;;;;;;5052511;28;20036;-57
2023/10/20 06:36:46;;;;;;;33.85;14.15;;;8.50;99.90;;;;;;5052563;28;20106;-56
2023/10/20 06:39:13;;;;;;;32.97;14.33;;;8.40;99.90;;;;;;5051797;28;20049;-55
2023/10/20 06:41:39;;;;;;;36.08;14.75;;;8.50;99.90;;;;;;5051991;28;20053;-56
2023/10/20 06:44:05;;;;;;;33.67;13.80;;;8.80;99.90;;;;;;5050496;28;20462;-56
2023/10/20 06:46:31;;;;;;;36.83;22.63;;;8.80;99.90;;;;;;5042301;28;20108;-55
2023/10/20 06:48:57;;;;;;;32.40;13.50;;;8.80;99.90;;;;;;5036974;28;20052;-56
2023/10/20 06:51:25;;;;;;;32.15;14.70;;;8.50;99.90;;;;;;5040523;28;20044;-56
2023/10/20 06:53:51;;;;;;;39.97;25.13;;;8.60;99.90;;;;;;5038067;28;20036;-57
2023/10/20 06:56:17;;;;;;;30.88;13.30;;;8.70;99.90;;;;;;5037108;28;20041;-57
2023/10/20 06:58:43;;;;;;;34.65;14.98;;;8.80;99.90;;;;;;5037825;28;20041;-57
2023/10/20 07:01:10;;;;;;;34.72;15.35;;;8.40;99.90;;;;;;5038548;28;20064;-57
2023/10/20 07:03:35;;;;;;;29.70;12.80;;;8.80;99.90;;;;;;5037826;28;20041;-56
2023/10/20 07:06:02;;;;;;;34.78;22.77;;;8.40;99.90;;;;;;5037693;28;20037;-57
2023/10/20 07:08:28;;;;;;;31.08;13.35;;;8.60;99.90;;;;;;5037064;28;21185;-56
2023/10/20 07:10:53;;;;;;;27.95;13.07;;;8.80;99.90;;;;;;5039043;28;20075;-55
2023/10/20 07:13:19;;;;;;;28.15;12.30;;;8.40;99.90;;;;;;5038380;28;20048;-55
2023/10/20 07:15:45;;;;;;;27.33;12.30;;;8.80;99.90;;;;;;5039070;28;20048;-56
2023/10/20 07:18:12;;;;;;;31.23;13.18;;;8.80;99.90;;;;;;5038558;28;20473;-54
2023/10/20 07:20:41;;;;;;;26.23;11.60;;;8.70;99.90;;;;;;5038174;28;20492;-56
2023/10/20 07:23:07;;;;;;;27.70;17.88;;;8.40;99.90;;;;;;5037968;28;20037;-57
2023/10/20 07:25:33;;;;;;;24.63;18.17;;;8.70;99.90;;;;;;5021066;28;20094;-56
2023/10/20 07:27:58;;;;;;;26.38;9.45;;;8.80;99.90;;;;;;5038624;28;20040;-55
2023/10/20 07:30:24;;;;;;;27.02;18.13;;;8.70;99.90;;;;;;5038672;28;20033;-56
2023/10/20 07:32:53;;;;;;;19.48;9.93;;;8.60;99.90;;;;;;5037733;28;20053;-54
2023/10/20 07:35:19;;;;;;;22.75;15.70;;;8.80;99.90;;;;;;5037287;28;20483;-56
2023/10/20 07:37:44;;;;;;;17.02;8.43;;;8.60;99.90;;;;;;5037637;28;20037;-56
2023/10/20 07:40:10;;;;;;;19.13;8.85;;;8.30;99.90;;;;;;5036241;28;20055;-56
2023/10/20 07:42:40;;;;;;;18.98;9.10;;;8.40;99.90;;;;;;5036510;28;20227;-55
2023/10/20 07:45:07;;;;;;;16.30;7.35;;;8.70;99.90;;;;;;5037616;28;20037;-57
2023/10/20 07:47:33;;;;;;;20.00;13.38;;;8.30;99.90;;;;;;5037145;28;20491;-56
2023/10/20 07:49:59;;;;;;;14.02;7.90;;;8.30;99.90;;;;;;5036286;28;20178;-56
2023/10/20 07:52:26;;;;;;;14.27;6.82;;;8.30;99.90;;;;;;5022124;28;20036;-56
2023/10/20 07:54:52;;;;;;;13.68;7.10;;;8.40;99.90;;;;;;5038363;28;20051;-57
2023/10/20 07:57:20;;;;;;;12.95;6.65;;;8.80;99.90;;;;;;5036657;28;20044;-58
2023/10/20 07:59:46;;;;;;;16.23;7.60;;;8.70;99.90;;;;;;5027559;28;20045;-57
2023/10/20 08:02:12;;;;;;;17.40;11.40;;;8.70;99.90;;;;;;5024903;28;20045;-56
2023/10/20 08:04:40;;;;;;;14.93;6.43;;;8.70;99.90;;;;;;5038099;28;20038;-55
2023/10/20 08:07:06;;;;;;;13.13;6.63;;;8.30;99.90;;;;;;5038372;28;20033;-57
2023/10/20 08:09:32;;;;;;;15.20;10.32;;;8.70;99.90;;;;;;5038160;28;20045;-55
2023/10/20 08:11:59;;;;;;;13.10;6.35;;;8.70;99.90;;;;;;5038935;28;20035;-57
2023/10/20 08:14:27;;;;;;;15.88;7.60;;;8.50;99.90;;;;;;5038268;28;20098;-58
2023/10/20 08:16:53;;;;;;;13.15;5.97;;;8.40;99.90;;;;;;5037630;28;20126;-56
2023/10/20 08:19:19;;;;;;;12.70;9.25;;;8.60;99.90;;;;;;5037959;28;20479;-56
2023/10/20 08:21:45;;;;;;;11.38;5.85;;;8.30;99.90;;;;;;5022919;28;20029;-57
2023/10/20 08:24:10;;;;;;;12.38;5.90;;;8.70;99.90;;;;;;5025492;28;20037;-56
2023/10/20 08:26:37;;;;;;;12.63;6.05;;;8.30;99.90;;;;;;5042608;28;20045;-58
2023/10/20 08:29:06;;;;;;;10.98;5.95;;;8.50;99.90;;;;;;5041999;28;20491;-57
2023/10/20 08:31:32;;;;;;;10.85;5.70;;;8.50;99.90;;;;;;5043167;28;20044;-55
2023/10/20 08:33:58;;;;;;;15.30;6.65;;;8.40;99.90;;;;;;5041913;28;20032;-56
2023/10/20 08:36:24;;;;;;;10.00;5.35;;;8.40;99.90;;;;;;5042502;28;20182;-58
2023/10/20 08:38:52;;;;;;;10.82;5.25;;;8.20;99.90;;;;;;5041547;28;20571;-57
2023/10/20 08:41:22;;;;;;;10.95;8.43;;;8.30;99.90;;;;;;5041500;28;20055;-56
2023/10/20 08:43:48;;;;;;;10.25;5.53;;;8.40;99.90;;;;;;5041561;28;20546;-56
2023/10/20 08:46:18;;;;;;;11.30;6.22;;;8.70;99.90;;;;;;5030157;28;20132;-58
2023/10/20 08:48:46;;;;;;;8.05;4.35;;;8.40;99.90;;;;;;5040326;28;20045;-56
2023/10/20 08:51:14;;;;;;;9.05;5.40;;;8.40;99.90;;;;;;5041568;28;20060;-58
2023/10/20 08:53:41;;;;;;;8.20;4.68;;;8.40;99.90;;;;;;5041261;28;20068;-56
2023/10/20 08:56:10;;;;;;;7.25;4.45;;;8.30;99.90;;;;;;5042601;28;20049;-57
2023/10/20 08:58:36;;;;;;;6.80;4.40;;;8.30;99.90;;;;;;5040550;28;20476;-57
2023/10/20 09:01:06;;;;;;;8.85;3.92;;;8.30;99.90;;;;;;5039786;28;20045;-57
2023/10/20 09:03:59;;;;;;;15.18;3.78;;;8.30;99.90;;;;;;5041365;28;20052;-58
2023/10/20 09:06:26;;;;;;;8.07;3.90;;;8.30;99.90;;;;;;5036009;28;20752;-57
2023/10/20 09:08:53;;;;;;;5.53;3.53;;;8.70;99.90;;;;;;5041004;28;20025;-59
2023/10/20 09:11:18;;;;;;;6.35;3.17;;;8.60;99.90;;;;;;5040995;28;20040;-59
2023/10/20 09:13:46;;;;;;;5.63;3.13;;;8.50;99.90;;;;;;5040853;28;20037;-58
2023/10/20 09:16:13;;;;;;;6.97;3.35;;;8.30;99.90;;;;;;5041063;28;20442;-59
2023/10/20 09:18:48;;;;;;;5.90;4.50;;;8.30;99.90;;;;;;5041297;28;20044;-58
2023/10/20 09:21:15;;;;;;;6.22;3.33;;;8.50;99.90;;;;;;5041047;28;20515;-56
2023/10/20 09:24:02;;;;;;;5.18;3.50;;;8.30;99.90;;;;;;5041201;28;20037;-59
2023/10/20 09:26:36;;;;;;;5.80;3.60;;;8.60;99.90;;;;;;5049210;28;20144;-58
2023/10/20 09:29:05;;;;;;;5.43;4.55;;;8.60;99.90;;;;;;5029677;28;20037;-58
2023/10/20 09:31:35;;;;;;;6.05;2.92;;;8.50;99.90;;;;;;5035881;28;20427;-59
2023/10/20 09:34:01;;;;;;;6.20;3.10;;;8.70;99.90;;;;;;5033064;28;20124;-58
2023/10/20 09:36:31;;;;;;;4.78;2.55;;;8.40;99.90;;;;;;5032740;28;20369;-58
2023/10/20 09:38:59;;;;;;;5.25;3.08;;;8.70;99.90;;;;;;5051228;28;20076;-57
2023/10/20 09:41:29;;;;;;;5.35;3.00;;;8.70;99.90;;;;;;5049473;28;20052;-58
2023/10/20 09:44:08;;;;;;;5.13;3.90;;;8.40;99.90;;;;;;5050912;28;20175;-57
2023/10/20 09:46:46;;;;;;;3.95;2.30;;;8.70;99.90;;;;;;5049820;28;20603;-56
2023/10/20 09:49:20;;;;;;;3.72;2.08;;;8.70;99.90;;;;;;5033876;28;20041;-58
2023/10/20 09:51:47;;;;;;;5.10;2.20;;;8.30;99.90;;;;;;5052790;28;20044;-58
2023/10/20 09:54:19;;;;;;;5.07;2.20;;;8.70;99.90;;;;;;5052331;28;20404;-58
2023/10/20 09:56:46;;;;;;;4.70;2.03;;;8.40;99.90;;;;;;5051305;28;20025;-59
2023/10/20 09:59:27;;;;;;;4.45;2.08;;;8.70;99.90;;;;;;5051005;28;20029;-56
2023/10/20 10:01:55;;;;;;;3.92;2.85;;;8.60;99.90;;;;;;5052255;28;20049;-59
2023/10/20 10:04:33;;;;;;;3.55;1.75;;;8.70;99.90;;;;;;5052403;28;20064;-58
2023/10/20 10:07:03;;;;;;;5.90;1.48;;;8.70;99.90;;;;;;5051847;28;20167;-57
2023/10/20 10:09:49;;;;;;;3.47;1.63;;;8.30;99.90;;;;;;5050426;28;20043;-59
2023/10/20 10:12:18;;;;;;;4.82;2.63;;;8.30;99.90;;;;;;5035061;28;20044;-57
2023/10/20 10:14:59;;;;;;;4.47;2.03;;;8.30;99.90;;;;;;5051031;28;20076;-59
2023/10/20 10:17:26;;;;;;;4.32;2.40;;;8.60;99.90;;;;;;5047503;28;20037;-58
2023/10/20 10:19:54;;;;;;;3.55;1.73;;;8.20;99.90;;;;;;5048896;28;20671;-58
2023/10/20 10:22:29;;;;;;;2.92;1.58;;;8.40;99.90;;;;;;5043218;28;20529;-58
2023/10/20 10:24:56;;;;;;;4.18;1.70;;;8.30;99.90;;;;;;5047395;28;20041;-57
2023/10/20 10:27:28;;;;;;;3.78;1.70;;;8.30;99.90;;;;;;5051506;28;20392;-58
2023/10/20 10:30:05;;;;;;;3.88;1.73;;;8.20;99.90;;;;;;5050286;28;20041;-58
2023/10/20 10:32:32;;;;;;;3.13;1.75;;;8.60;99.90;;;;;;5050501;28;20052;-58
2023/10/20 10:34:58;;;;;;;3.45;1.77;;;8.60;99.90;;;;;;5049986;28;20042;-58
2023/10/20 10:37:33;;;;;;;2.50;1.40;;;8.20;99.90;;;;;;5051380;28;20047;-57
2023/10/20 10:40:07;;;;;;;;;;;8.30;99.90;;;;;;5052058;28;20065;-58
2023/10/20 10:42:40;;;;;;;3.10;1.57;;;9.00;99.90;;;;;;5052553;28;19956;-58
2023/10/20 10:45:16;;;;;;;2.72;1.80;;;8.50;99.90;;;;;;5052511;28;20274;-60
2023/10/20 10:47:42;;;;;;;2.08;1.15;;;8.20;99.90;;;;;;5034311;28;20123;-59
2023/10/20 10:50:08;;;;;;;2.83;1.45;;;8.10;99.90;;;;;;5034263;28;20455;-57
2023/10/20 10:52:34;;;;;;;2.85;1.27;;;8.10;99.90;;;;;;5052056;28;20044;-58
2023/10/20 10:55:00;;;;;;;3.83;1.27;;;8.20;99.90;;;;;;5051300;28;20032;-58
2023/10/20 10:57:26;;;;;;;2.42;1.48;;;8.40;99.90;;;;;;5051979;28;20469;-56
2023/10/20 10:59:53;;;;;;;3.67;1.33;;;8.10;99.90;;;;;;5051639;28;20052;-59
2023/10/20 11:02:20;;;;;;;3.28;1.30;;;8.30;99.90;;;;;;5050577;28;20041;-60
2023/10/20 11:04:46;;;;;;;2.50;1.38;;;8.40;99.90;;;;;;5043522;28;20040;-58
2023/10/20 11:07:14;;;;;;;2.63;1.88;;;8.50;99.90;;;;;;5050011;28;20388;-58
2023/10/20 11:09:41;;;;;;;2.72;1.40;;;8.20;99.90;;;;;;5050204;28;20064;-59
2023/10/20 11:12:10;;;;;;;2.42;1.20;;;8.40;99.90;;;;;;5050073;28;20044;-59
2023/10/20 11:14:39;;;;;;;3.78;1.73;;;8.50;99.90;;;;;;5049510;28;20045;-58
2023/10/20 11:17:04;;;;;;;2.80;1.60;;;8.20;99.90;;;;;;5030756;28;20049;-58
2023/10/20 11:19:31;;;;;;;2.33;1.42;;;8.10;99.90;;;;;;5048623;28;20071;-58
2023/10/20 11:21:57;;;;;;;2.65;1.20;;;8.40;99.90;;;;;;5032978;28;20033;-59
2023/10/20 11:24:34;;;;;;;2.05;1.00;;;8.20;99.90;;;;;;5050172;28;20147;-59
2023/10/20 11:27:03;;;;;;;3.88;1.23;;;8.10;99.90;;;;;;5032884;28;20120;-58
2023/10/20 11:29:33;;;;;;;2.08;1.10;;;8.10;99.90;;;;;;5050841;28;20044;-57
2023/10/20 11:32:05;;;;;;;2.13;0.88;;;8.20;99.90;;;;;;5050895;28;20033;-59
2023/10/20 11:34:34;;;;;;;1.45;0.88;;;8.70;99.90;;;;;;5032987;28;20087;-58
2023/10/20 11:37:00;;;;;;;1.65;0.90;;;8.10;99.90;;;;;;5049911;28;20036;-58
2023/10/20 11:39:27;;;;;;;3.22;0.98;;;8.50;99.90;;;;;;5049467;28;20067;-59
2023/10/20 11:41:53;;;;;;;1.23;0.52;;;8.10;99.90;;;;;;5048361;28;20210;-58
2023/10/20 11:44:24;;;;;;;1.58;0.77;;;8.30;99.90;;;;;;5050751;28;20048;-59
2023/10/20 11:46:52;;;;;;;1.48;0.63;;;8.20;99.90;;;;;;5050829;28;20047;-60
2023/10/20 11:49:18;;;;;;;2.70;0.82;;;8.40;99.90;;;;;;5050826;28;20033;-58
2023/10/20 11:51:44;;;;;;;1.98;0.80;;;8.30;99.90;;;;;;5050932;28;20078;-58
2023/10/20 11:54:10;;;;;;;1.58;0.70;;;8.10;99.90;;;;;;5050598;28;20155;-58
2023/10/20 11:56:37;;;;;;;1.15;0.57;;;8.30;99.90;;;;;;5050721;28;20037;-58
2023/10/20 11:59:02;;;;;;;3.15;0.63;;;8.00;99.90;;;;;;5049873;28;20044;-59
2023/10/20 12:01:31;;;;;;;2.38;0.60;;;8.00;99.90;;;;;;5050492;28;20384;-57
2023/10/20 12:04:00;;;;;;;1.58;0.68;;;8.20;99.90;;;;;;5051020;28;20497;-59
2023/10/20 12:06:26;;;;;;;4.40;0.63;;;8.30;99.90;;;;;;5050209;28;20033;-59
2023/10/20 12:08:52;;;;;;;3.00;0.50;;;8.30;99.90;;;;;;5048792;28;20035;-59
2023/10/20 12:11:18;;;;;;;1.35;0.70;;;8.10;99.90;;;;;;5049400;28;20036;-58
2023/10/20 12:13:48;;;;;;;0.95;0.57;;;8.30;99.90;;;;;;5048290;28;20393;-58
2023/10/20 12:16:19;;;;;;;1.33;0.60;;;8.30;99.90;;;;;;5049364;28;20277;-60
2023/10/20 12:18:47;;;;;;;1.48;0.75;;;8.30;99.90;;;;;;5047215;28;20602;-59
2023/10/20 12:21:14;;;;;;;0.60;0.40;;;8.30;99.90;;;;;;5049060;28;20033;-60
2023/10/20 12:23:40;;;;;;;1.27;0.50;;;8.30;99.90;;;;;;5049025;28;20106;-60
2023/10/20 12:26:05;;;;;;;0.90;0.50;;;8.10;99.90;;;;;;5048912;28;20041;-59
2023/10/20 12:28:31;;;;;;;1.50;0.60;;;8.20;99.90;;;;;;5049063;28;20103;-60
2023/10/20 12:30:59;;;;;;;0.82;0.40;;;8.10;99.90;;;;;;5048391;28;20549;-59
2023/10/20 12:33:26;;;;;;;3.33;0.93;;;8.30;99.90;;;;;;5049756;28;20080;-61
2023/10/20 12:35:55;;;;;;;1.92;0.57;;;8.40;99.90;;;;;;5048978;28;20077;-60
2023/10/20 12:38:22;;;;;;;0.68;0.47;;;8.30;99.90;;;;;;5048782;28;20033;-59
2023/10/20 12:40:50;;;;;;;2.05;0.63;;;8.10;99.90;;;;;;5049406;28;20096;-59
2023/10/20 12:43:16;;;;;;;0.77;0.40;;;8.30;99.90;;;;;;5049066;28;20065;-58
2023/10/20 12:45:42;;;;;;;2.03;0.60;;;8.30;99.90;;;;;;5048853;28;20076;-60
2023/10/20 12:48:08;;;;;;;2.67;0.85;;;8.40;99.90;;;;;;5049427;28;20065;-60
2023/10/20 12:50:36;;;;;;;1.30;0.60;;;8.50;99.90;;;;;;5031258;28;20052;-60
2023/10/20 12:53:07;;;;;;;1.15;0.60;;;8.10;99.90;;;;;;5048756;28;20049;-61
2023/10/20 12:55:33;;;;;;;0.60;0.40;;;8.40;99.90;;;;;;5045835;28;20055;-59
2023/10/20 12:57:59;;;;;;;1.05;0.50;;;8.00;99.90;;;;;;5048571;28;20120;-60
2023/10/20 13:00:25;;;;;;;0.98;0.47;;;8.10;99.90;;;;;;5048444;28;20080;-59
2023/10/20 13:02:52;;;;;;;0.88;0.50;;;8.00;99.90;;;;;;5048945;28;20449;-59
2023/10/20 13:05:19;;;;;;;0.70;0.40;;;8.30;99.90;;;;;;5049001;28;20485;-61
2023/10/20 13:07:44;;;;;;;0.90;0.50;;;7.90;99.90;;;;;;5049599;28;20095;-58
2023/10/20 13:10:10;;;;;;;1.42;0.68;;;8.10;99.90;;;;;;5051040;28;20388;-58
2023/10/20 13:12:36;;;;;;;0.98;0.50;;;7.90;99.90;;;;;;5035199;28;20102;-60
2023/10/20 13:15:03;;;;;;;1.13;0.50;;;8.30;99.90;;;;;;5053081;28;20037;-60
2023/10/20 13:17:30;;;;;;;1.70;0.70;;;8.30;99.90;;;;;;5053338;28;20041;-59
2023/10/20 13:19:56;;;;;;;1.08;0.55;;;8.10;99.90;;;;;;5052557;28;20080;-59
2023/10/20 13:22:24;;;;;;;1.90;0.85;;;8.30;99.90;;;;;;5053687;28;20102;-59
2023/10/20 13:24:51;;;;;;;1.25;0.50;;;7.90;99.90;;;;;;5053840;28;20044;-58
2023/10/20 13:27:18;;;;;;;1.02;0.47;;;8.30;99.90;;;;;;5053396;28;20424;-59
2023/10/20 13:29:45;;;;;;;1.63;0.68;;;8.30;99.90;;;;;;5052720;28;20119;-58
2023/10/20 13:32:12;;;;;;;1.40;0.80;;;7.90;99.90;;;;;;5052733;28;20049;-58